This is the latest recevied weather packets stored in our database for station/object 9M4RBN-3. If no packets are shown the sender has not sent any weather packets the latest 10 day(s).
| Time | Temp. | Humidity | Pressure | Rain* | Wind** | Luminosity | Snow |
|---|---|---|---|---|---|---|---|
| 1787678341 | 27.78° C | 67% | 1017.7 hPa | - | - | - | - |
| 1787677441 | 27.22° C | 65% | 1017.8 hPa | - | - | - | - |
| 1787676578 | 27.22° C | 63% | 1018 hPa | - | - | - | - |
| 1787676541 | 27.22° C | 63% | 1018 hPa | - | - | - | - |
| 1787675640 | 26.67° C | 60% | 1018.2 hPa | - | - | - | - |
| 1787674740 | 25.56° C | 54% | 1018.2 hPa | - | - | - | - |
| 1787673840 | 25° C | 45% | 1018.4 hPa | - | - | - | - |
| 1787672940 | 25° C | 45% | 1018.4 hPa | - | - | - | - |
| 1787672042 | 25° C | 45% | 1018.4 hPa | - | - | - | - |
| 1787671142 | 25° C | 45% | 1018.3 hPa | - | - | - | - |
| 1787670242 | 25.56° C | 45% | 1018.1 hPa | - | - | - | - |
| 1787669342 | 25.56° C | 46% | 1017.9 hPa | - | - | - | - |
| 1787668442 | 25.56° C | 47% | 1017.8 hPa | - | - | - | - |
| 1787667541 | 25.56° C | 47% | 1017.6 hPa | - | - | - | - |
| 1787666641 | 25.56° C | 47% | 1017.6 hPa | - | - | - | - |
| 1787665741 | 26.11° C | 47% | 1017.3 hPa | - | - | - | - |
| 1787664841 | 26.11° C | 47% | 1017.1 hPa | - | - | - | - |
| 1787663941 | 26.11° C | 47% | 1016.9 hPa | - | - | - | - |
| 1787663041 | 26.11° C | 47% | 1016.9 hPa | - | - | - | - |
| 1787662141 | 26.11° C | 47% | 1016.7 hPa | - | - | - | - |
| 1787661241 | 26.11° C | 47% | 1016.5 hPa | - | - | - | - |
| 1787660341 | 26.11° C | 46% | 1016.5 hPa | - | - | - | - |
| 1787659441 | 26.11° C | 47% | 1016.3 hPa | - | - | - | - |
| 1787658541 | 26.11° C | 46% | 1015.9 hPa | - | - | - | - |
| 1787657641 | 26.67° C | 47% | 1015.9 hPa | - | - | - | - |
* Rain since midnight (hover to see other rain measurements)
** Current wind speed in m/s (hover to see current wind gust speed)